Time;durP1;ratioP1;P1;durP2;ratioP2;P2;SDS_P1;SDS_P2;PMS_P1;PMS_P2;Temp;Humidity;BMP_temperature;BMP_pressure;BME280_temperature;BME280_humidity;BME280_pressure;Samples;Min_cycle;Max_cycle;Signal;HPM_P1;HPM_P2
2022/01/06 00:01:50;;;;;;;1.77;0.43;;;3.00;99.90;;;;;;5117648;28;20198;-75
2022/01/06 00:04:16;;;;;;;0.50;0.50;;;3.00;99.90;;;;;;5131788;28;20194;-75
2022/01/06 00:06:43;;;;;;;0.63;0.43;;;2.90;99.90;;;;;;5131851;28;20611;-74
2022/01/06 00:09:14;;;;;;;4.93;0.73;;;2.90;99.90;;;;;;5104783;28;20198;-75
2022/01/06 00:11:40;;;;;;;0.20;0.20;;;3.00;99.90;;;;;;5111307;28;20154;-74
2022/01/06 00:14:16;;;;;;;1.00;0.40;;;3.20;99.90;;;;;;5093121;28;20171;-75
2022/01/06 00:24:48;;;;;;;1.00;0.57;;;3.20;99.90;;;;;;5115763;28;20194;-75
2022/01/06 00:27:14;;;;;;;0.60;0.47;;;3.20;99.90;;;;;;5092587;28;20171;-75
2022/01/06 00:29:42;;;;;;;0.57;0.40;;;3.10;99.90;;;;;;5110985;28;20179;-74
2022/01/06 00:32:08;;;;;;;0.20;0.20;;;3.00;99.90;;;;;;5110913;28;20158;-75
2022/01/06 00:34:35;;;;;;;0.57;0.30;;;2.90;99.90;;;;;;5092680;28;20312;-76
2022/01/06 00:37:01;;;;;;;0.43;0.40;;;2.80;99.90;;;;;;5122655;27;20185;-75
2022/01/06 00:39:28;;;;;;;1.05;0.47;;;2.80;99.90;;;;;;5119114;28;20242;-75
2022/01/06 00:42:01;;;;;;;0.65;0.47;;;2.70;99.90;;;;;;5112801;28;20185;-75
2022/01/06 00:44:27;;;;;;;7.13;1.10;;;2.70;99.90;;;;;;5131120;28;20159;-74
2022/01/06 00:46:53;;;;;;;1.27;0.43;;;2.70;99.90;;;;;;5131103;28;20154;-74
2022/01/06 00:49:20;;;;;;;1.95;0.65;;;2.70;99.90;;;;;;5130953;28;20198;-75
2022/01/06 00:51:47;;;;;;;1.48;0.52;;;2.70;99.90;;;;;;5130896;28;20155;-75
2022/01/06 00:54:14;;;;;;;0.95;0.60;;;2.70;99.90;;;;;;5112579;28;20171;-75
2022/01/06 00:56:40;;;;;;;0.90;0.60;;;2.70;99.90;;;;;;5112644;28;20631;-75
2022/01/06 00:59:06;;;;;;;0.43;0.40;;;2.70;99.90;;;;;;5112000;28;20314;-75
2022/01/06 01:01:32;;;;;;;0.20;0.20;;;2.70;99.90;;;;;;5100112;28;20191;-75
2022/01/06 01:03:58;;;;;;;1.95;0.80;;;2.80;99.90;;;;;;5130364;27;20205;-75
2022/01/06 01:06:26;;;;;;;1.58;0.30;;;2.80;99.90;;;;;;5112524;28;20194;-76
2022/01/06 01:08:51;;;;;;;2.15;0.95;;;2.70;99.90;;;;;;5124330;28;20557;-75
2022/01/06 01:11:17;;;;;;;0.65;0.52;;;2.60;99.90;;;;;;5108729;28;20186;-76
2022/01/06 01:13:55;;;;;;;1.48;0.65;;;2.60;99.90;;;;;;5110077;28;20174;-75
2022/01/06 01:16:27;;;;;;;0.93;0.70;;;2.50;99.90;;;;;;5110105;28;20151;-75
2022/01/06 01:18:56;;;;;;;0.60;0.50;;;2.50;99.90;;;;;;5109674;28;20187;-75
2022/01/06 01:21:26;;;;;;;2.42;0.77;;;2.50;99.90;;;;;;5103657;28;20182;-75
2022/01/06 01:23:53;;;;;;;1.02;0.50;;;2.50;99.90;;;;;;5130069;28;20183;-75
2022/01/06 01:26:19;;;;;;;0.85;0.75;;;2.40;99.90;;;;;;5111904;28;20169;-74
2022/01/06 01:28:46;;;;;;;0.45;0.30;;;2.40;99.90;;;;;;5130178;28;20187;-75
2022/01/06 01:33:39;;;;;;;4.55;1.52;;;2.40;99.90;;;;;;5130221;28;20196;-74
2022/01/06 01:36:05;;;;;;;0.68;0.60;;;2.30;99.90;;;;;;5130148;28;20163;-75
2022/01/06 01:38:32;;;;;;;1.45;1.10;;;2.30;99.90;;;;;;5130013;28;20190;-75
2022/01/06 01:40:57;;;;;;;4.85;1.60;;;2.40;99.90;;;;;;5130044;28;20159;-75
2022/01/06 01:43:23;;;;;;;5.40;1.08;;;2.30;99.90;;;;;;5111554;28;20197;-75
2022/01/06 01:45:56;;;;;;;2.22;0.88;;;2.30;99.90;;;;;;5111648;28;20189;-74
2022/01/06 01:48:28;;;;;;;0.73;0.70;;;2.20;99.90;;;;;;5129844;28;20603;-75
2022/01/06 01:50:54;;;;;;;2.95;1.02;;;2.30;99.90;;;;;;5129886;28;20178;-75
2022/01/06 01:53:20;;;;;;;1.30;0.77;;;2.30;99.90;;;;;;5129874;28;20175;-75
2022/01/06 01:55:46;;;;;;;1.83;0.85;;;2.30;99.90;;;;;;5111544;28;20185;-75
2022/01/06 01:58:13;;;;;;;1.65;0.77;;;2.30;99.90;;;;;;5129626;28;20229;-75
2022/01/06 02:00:39;;;;;;;0.68;0.60;;;2.30;99.90;;;;;;5129911;28;20167;-75
2022/01/06 02:03:06;;;;;;;1.30;0.63;;;2.20;99.90;;;;;;5110835;28;20202;-75
2022/01/06 02:05:32;;;;;;;2.10;0.75;;;2.20;99.90;;;;;;5091222;28;20168;-75
2022/01/06 02:07:59;;;;;;;2.03;0.98;;;2.30;99.90;;;;;;5129469;28;20186;-74
2022/01/06 02:10:29;;;;;;;1.00;0.68;;;2.30;99.90;;;;;;5110224;28;20162;-74
2022/01/06 02:12:57;;;;;;;1.02;0.90;;;2.20;99.90;;;;;;5091132;28;20191;-75
2022/01/06 02:15:23;;;;;;;2.15;0.70;;;2.20;99.90;;;;;;5091076;28;20182;-74
2022/01/06 02:17:50;;;;;;;3.35;0.52;;;2.10;99.90;;;;;;5109123;28;20210;-75
2022/01/06 02:20:18;;;;;;;2.30;0.90;;;2.10;99.90;;;;;;5109254;28;20246;-75
2022/01/06 02:22:45;;;;;;;1.63;1.02;;;2.10;99.90;;;;;;5090872;28;20226;-75
2022/01/06 02:25:19;;;;;;;1.83;0.80;;;2.10;99.90;;;;;;5091067;28;20191;-74
2022/01/06 02:27:50;;;;;;;5.28;1.40;;;2.10;99.90;;;;;;5109171;28;20199;-75
2022/01/06 02:30:17;;;;;;;1.63;0.60;;;2.00;99.90;;;;;;5090932;28;20217;-76
2022/01/06 02:32:43;;;;;;;0.60;0.47;;;2.00;99.90;;;;;;5111707;28;20180;-76
2022/01/06 02:35:15;;;;;;;1.48;0.60;;;1.90;99.90;;;;;;5113218;28;20612;-76
2022/01/06 02:37:41;;;;;;;1.10;0.85;;;2.00;99.90;;;;;;5112995;28;20213;-76
2022/01/06 02:40:11;;;;;;;2.00;0.68;;;2.00;99.90;;;;;;5113130;28;20156;-76
2022/01/06 02:42:46;;;;;;;0.40;0.40;;;1.80;99.90;;;;;;5094767;28;20222;-76
2022/01/06 02:45:13;;;;;;;0.70;0.50;;;1.80;99.90;;;;;;5112758;28;20507;-76
2022/01/06 02:47:40;;;;;;;0.60;0.40;;;1.80;99.90;;;;;;5096396;28;20739;-76
2022/01/06 02:50:08;;;;;;;0.55;0.55;;;1.80;99.90;;;;;;5114859;28;20536;-77
2022/01/06 02:52:34;;;;;;;1.63;0.68;;;1.80;99.90;;;;;;5133323;28;20174;-75
2022/01/06 02:55:00;;;;;;;0.47;0.47;;;1.80;99.90;;;;;;5133441;28;20167;-75
2022/01/06 02:57:26;;;;;;;1.05;0.52;;;1.70;99.90;;;;;;5114846;28;20174;-75
2022/01/06 02:59:52;;;;;;;1.00;0.60;;;1.70;99.90;;;;;;5114583;28;20243;-75
2022/01/06 03:02:18;;;;;;;1.38;0.38;;;1.70;99.90;;;;;;5077537;28;20183;-76
2022/01/06 03:04:44;;;;;;;1.30;0.77;;;1.80;99.90;;;;;;5090736;28;20207;-75
2022/01/06 03:07:10;;;;;;;0.70;0.70;;;1.70;99.90;;;;;;5119247;28;20167;-75
2022/01/06 03:09:41;;;;;;;1.88;0.50;;;1.70;99.90;;;;;;5119942;28;20337;-75
2022/01/06 03:12:22;;;;;;;0.85;0.70;;;1.80;99.90;;;;;;5094191;28;20170;-75
2022/01/06 03:14:48;;;;;;;0.75;0.52;;;1.70;99.90;;;;;;5112382;28;20194;-75
2022/01/06 03:17:14;;;;;;;0.57;0.57;;;1.60;99.90;;;;;;5094139;28;20168;-76
2022/01/06 03:19:40;;;;;;;1.17;0.55;;;1.50;99.90;;;;;;5112150;28;20208;-75
2022/01/06 03:22:06;;;;;;;1.55;0.65;;;1.50;99.90;;;;;;5112110;28;20156;-75
2022/01/06 03:24:32;;;;;;;0.98;0.70;;;1.40;99.90;;;;;;5093922;28;20167;-75
2022/01/06 03:26:58;;;;;;;2.42;1.13;;;1.40;99.90;;;;;;5093897;28;20174;-75
2022/01/06 03:29:24;;;;;;;1.85;1.17;;;1.60;99.90;;;;;;5093721;28;20191;-75
2022/01/06 03:31:51;;;;;;;2.00;1.33;;;1.70;99.90;;;;;;5093794;28;20159;-75
2022/01/06 03:34:17;;;;;;;4.10;0.85;;;1.70;99.90;;;;;;5111974;28;20228;-76
2022/01/06 03:36:43;;;;;;;2.55;1.73;;;1.60;99.90;;;;;;5093937;28;20171;-75
2022/01/06 03:39:09;;;;;;;3.30;1.50;;;1.60;99.90;;;;;;5093616;28;20220;-75
2022/01/06 03:41:35;;;;;;;2.50;1.25;;;1.70;99.90;;;;;;5093615;28;20175;-75
2022/01/06 03:44:01;;;;;;;1.77;1.40;;;1.60;99.90;;;;;;5093029;28;20263;-75
2022/01/06 03:46:27;;;;;;;3.30;1.35;;;1.60;99.90;;;;;;5111684;28;20627;-75
2022/01/06 03:48:53;;;;;;;2.63;1.27;;;1.60;99.90;;;;;;5093405;28;20622;-75
2022/01/06 03:51:20;;;;;;;1.55;1.20;;;1.50;99.90;;;;;;5093500;28;20171;-74
2022/01/06 03:53:47;;;;;;;2.28;1.42;;;1.40;99.90;;;;;;5111561;28;20179;-76
2022/01/06 03:56:14;;;;;;;2.33;1.35;;;1.40;99.90;;;;;;5111602;28;20246;-75
2022/01/06 03:58:40;;;;;;;1.67;1.15;;;1.50;99.90;;;;;;5119333;28;20292;-75
2022/01/06 04:01:08;;;;;;;2.97;1.55;;;1.50;99.90;;;;;;5131829;28;20167;-75
2022/01/06 04:03:34;;;;;;;3.65;1.40;;;1.50;99.90;;;;;;5127455;28;20266;-75
2022/01/06 04:06:00;;;;;;;3.25;1.58;;;1.50;99.90;;;;;;5100325;27;20169;-75
2022/01/06 04:08:25;;;;;;;1.15;1.15;;;1.60;99.90;;;;;;5149702;27;20189;-76
2022/01/06 04:10:52;;;;;;;2.35;1.48;;;1.50;99.90;;;;;;5113365;28;20162;-75
2022/01/06 04:13:18;;;;;;;1.77;1.10;;;1.40;99.90;;;;;;5113378;28;20170;-75
2022/01/06 04:15:45;;;;;;;3.53;1.63;;;1.40;99.90;;;;;;5113246;28;20267;-75
2022/01/06 04:18:11;;;;;;;2.17;1.50;;;1.30;99.90;;;;;;5131527;28;20190;-75
2022/01/06 04:20:37;;;;;;;3.33;2.00;;;1.30;99.90;;;;;;5131565;28;20151;-75
2022/01/06 04:23:04;;;;;;;3.10;1.70;;;1.30;99.90;;;;;;5113095;28;20200;-76
2022/01/06 04:25:29;;;;;;;3.17;1.50;;;1.20;99.90;;;;;;5112972;28;20182;-75
2022/01/06 04:27:55;;;;;;;2.60;1.58;;;1.20;99.90;;;;;;5112951;28;20538;-75
2022/01/06 04:30:21;;;;;;;3.92;2.20;;;1.20;99.90;;;;;;5131379;28;20159;-75
2022/01/06 04:32:47;;;;;;;2.05;1.70;;;1.20;99.90;;;;;;5131271;28;20186;-75
2022/01/06 04:35:13;;;;;;;3.22;1.98;;;1.20;99.90;;;;;;5112010;28;20208;-75
2022/01/06 04:37:39;;;;;;;3.00;1.60;;;1.10;99.90;;;;;;5103742;28;20183;-76
2022/01/06 04:40:07;;;;;;;3.10;2.13;;;1.10;99.90;;;;;;5092423;28;20253;-75
2022/01/06 04:42:32;;;;;;;2.58;1.67;;;1.00;99.90;;;;;;5109316;28;20195;-75
2022/01/06 04:44:58;;;;;;;4.55;1.90;;;1.00;99.90;;;;;;5091983;28;20608;-76
2022/01/06 04:47:24;;;;;;;1.27;1.02;;;1.00;99.90;;;;;;5110710;28;20590;-75
2022/01/06 04:49:50;;;;;;;1.77;1.60;;;1.00;99.90;;;;;;5092179;28;20698;-76
2022/01/06 04:52:16;;;;;;;3.90;1.77;;;0.90;99.90;;;;;;5110519;28;20238;-75
2022/01/06 04:54:42;;;;;;;4.30;2.10;;;0.90;99.90;;;;;;5074869;28;20179;-75
2022/01/06 04:57:08;;;;;;;2.38;1.90;;;0.90;99.90;;;;;;5092231;28;20174;-75
2022/01/06 04:59:36;;;;;;;2.00;1.50;;;0.90;99.90;;;;;;5110000;28;20305;-74
2022/01/06 05:02:03;;;;;;;2.40;1.55;;;0.90;99.90;;;;;;5110328;28;20162;-76
2022/01/06 05:04:30;;;;;;;2.33;1.83;;;0.80;99.90;;;;;;5110289;28;20164;-75
2022/01/06 05:06:56;;;;;;;2.15;1.42;;;0.90;99.90;;;;;;5109626;28;20213;-74
2022/01/06 05:09:24;;;;;;;5.97;1.88;;;0.90;99.90;;;;;;5091908;28;20197;-74
2022/01/06 05:11:50;;;;;;;5.05;2.25;;;0.90;99.90;;;;;;5075326;28;20164;-74
2022/01/06 05:14:16;;;;;;;3.80;2.00;;;0.80;99.90;;;;;;5091823;28;20216;-74
2022/01/06 05:16:41;;;;;;;2.53;1.92;;;0.80;99.90;;;;;;5109981;28;20164;-75
2022/01/06 05:19:07;;;;;;;3.72;2.00;;;0.80;99.90;;;;;;5109873;28;20217;-74
2022/01/06 05:21:33;;;;;;;2.92;2.15;;;0.80;99.90;;;;;;5091798;28;20172;-74
2022/01/06 05:24:00;;;;;;;6.72;2.25;;;0.70;99.90;;;;;;5109895;28;20191;-74
2022/01/06 05:26:26;;;;;;;4.55;1.92;;;0.70;99.90;;;;;;5109977;28;20155;-75
2022/01/06 05:28:52;;;;;;;3.55;2.38;;;0.70;99.90;;;;;;5091567;28;20255;-75
2022/01/06 05:31:18;;;;;;;2.70;1.98;;;0.70;99.90;;;;;;5109798;28;20156;-74
2022/01/06 05:33:44;;;;;;;4.03;2.42;;;0.70;99.90;;;;;;5109843;28;20163;-74
2022/01/06 05:36:10;;;;;;;3.42;1.95;;;0.70;99.90;;;;;;5091473;28;20521;-74
2022/01/06 05:38:36;;;;;;;5.13;2.38;;;0.80;99.90;;;;;;5109537;28;20187;-74
2022/01/06 05:41:02;;;;;;;5.65;2.50;;;0.80;99.90;;;;;;5091408;28;20159;-75
2022/01/06 05:43:28;;;;;;;2.45;1.88;;;0.70;99.90;;;;;;5091361;28;20259;-74
2022/01/06 05:45:56;;;;;;;2.63;2.05;;;0.80;99.90;;;;;;5109698;28;20152;-76
2022/01/06 05:48:24;;;;;;;5.00;2.25;;;0.80;99.90;;;;;;5109557;28;20251;-76
2022/01/06 05:50:51;;;;;;;4.07;2.67;;;0.70;99.90;;;;;;5091359;28;20171;-76
2022/01/06 05:53:17;;;;;;;1.98;1.83;;;0.70;99.90;;;;;;5109545;28;20159;-77
2022/01/06 05:55:44;;;;;;;1.70;1.50;;;0.70;99.90;;;;;;5091437;28;20186;-77
2022/01/06 05:58:10;;;;;;;3.40;1.90;;;0.60;99.90;;;;;;5109262;28;20270;-76
2022/01/06 06:00:36;;;;;;;2.13;1.70;;;0.60;99.90;;;;;;5109330;28;20180;-77
2022/01/06 06:03:02;;;;;;;2.35;1.55;;;0.50;99.90;;;;;;5109450;28;20194;-76
2022/01/06 06:05:28;;;;;;;3.55;2.33;;;0.50;99.90;;;;;;5092147;28;20238;-77
2022/01/06 06:07:54;;;;;;;4.95;2.22;;;0.40;99.90;;;;;;5097890;28;20178;-76
2022/01/06 06:10:20;;;;;;;3.08;2.05;;;0.40;99.90;;;;;;5116300;28;20219;-75
2022/01/06 06:12:48;;;;;;;5.90;2.20;;;0.40;99.90;;;;;;5116146;28;20170;-75
2022/01/06 06:15:14;;;;;;;5.03;2.35;;;0.40;99.90;;;;;;5098361;28;20288;-75
2022/01/06 06:17:40;;;;;;;2.35;1.73;;;0.40;99.90;;;;;;5115805;28;20193;-76
2022/01/06 06:20:07;;;;;;;2.75;1.95;;;0.40;99.90;;;;;;5097647;28;20266;-75
2022/01/06 06:22:33;;;;;;;2.97;1.90;;;0.40;99.90;;;;;;5116122;28;20195;-76
2022/01/06 06:24:58;;;;;;;2.83;2.15;;;0.40;99.90;;;;;;5115953;28;20155;-76
2022/01/06 06:27:25;;;;;;;3.88;2.38;;;0.40;99.90;;;;;;5116006;28;20183;-76
2022/01/06 06:29:51;;;;;;;1.52;1.40;;;0.30;99.90;;;;;;5105949;28;20617;-76
2022/01/06 06:32:16;;;;;;;2.85;2.28;;;0.30;99.90;;;;;;5097614;28;20182;-76
2022/01/06 06:34:42;;;;;;;1.83;1.70;;;0.20;99.90;;;;;;5115553;28;20155;-75
2022/01/06 06:37:08;;;;;;;2.45;2.08;;;0.30;99.90;;;;;;5115846;28;20163;-75
2022/01/06 06:39:34;;;;;;;7.25;3.30;;;0.20;99.90;;;;;;5096729;28;20206;-76
2022/01/06 06:42:00;;;;;;;5.53;2.88;;;0.20;99.90;;;;;;5115607;28;20160;-76
2022/01/06 06:44:26;;;;;;;8.77;4.15;;;0.20;99.90;;;;;;5097196;28;20209;-76
2022/01/06 06:46:52;;;;;;;4.97;3.38;;;0.30;99.90;;;;;;5097606;28;20182;-76
2022/01/06 06:49:18;;;;;;;4.15;3.38;;;0.30;99.90;;;;;;5097306;28;20194;-76
2022/01/06 06:51:44;;;;;;;4.68;3.05;;;0.30;99.90;;;;;;5115190;28;20230;-76
2022/01/06 06:54:13;;;;;;;4.13;3.15;;;0.20;99.90;;;;;;5115174;28;20182;-75
2022/01/06 06:56:41;;;;;;;4.88;3.22;;;0.20;99.90;;;;;;5098052;28;20155;-76
2022/01/06 06:59:07;;;;;;;5.00;3.28;;;0.30;99.90;;;;;;5115405;28;20231;-76
2022/01/06 07:01:33;;;;;;;4.90;3.28;;;0.40;99.90;;;;;;5114920;28;20170;-77
2022/01/06 07:03:59;;;;;;;4.07;2.80;;;0.40;99.90;;;;;;5096956;28;20254;-75
2022/01/06 07:06:25;;;;;;;4.28;3.30;;;0.40;99.90;;;;;;5115526;28;20155;-76
2022/01/06 07:08:51;;;;;;;4.65;3.55;;;0.50;99.90;;;;;;5096964;28;20198;-76
2022/01/06 07:11:17;;;;;;;5.40;3.95;;;0.50;99.90;;;;;;5096605;28;20167;-76
2022/01/06 07:13:43;;;;;;;5.13;3.42;;;0.50;99.90;;;;;;5096864;28;20176;-76
2022/01/06 07:16:09;;;;;;;4.93;3.50;;;0.50;99.90;;;;;;5080317;28;20233;-77
2022/01/06 07:18:34;;;;;;;5.90;3.63;;;0.60;99.90;;;;;;5111697;28;20365;-77
2022/01/06 07:21:00;;;;;;;3.50;2.78;;;0.60;99.90;;;;;;5112294;28;20160;-76
2022/01/06 07:23:26;;;;;;;5.60;3.22;;;0.50;99.90;;;;;;5093780;28;20191;-76
2022/01/06 07:25:52;;;;;;;6.25;2.90;;;0.60;99.90;;;;;;5112097;28;20218;-76
2022/01/06 07:28:18;;;;;;;4.50;3.10;;;0.60;99.90;;;;;;5111940;28;20158;-75
2022/01/06 07:30:44;;;;;;;6.07;3.20;;;0.60;99.90;;;;;;5093690;28;20201;-76
2022/01/06 07:33:09;;;;;;;8.15;4.00;;;0.60;99.90;;;;;;5092251;28;20172;-76
2022/01/06 07:35:35;;;;;;;3.88;3.17;;;0.60;99.90;;;;;;5110956;28;20155;-76
2022/01/06 07:38:01;;;;;;;5.40;4.00;;;0.70;99.90;;;;;;5111890;28;20167;-75
2022/01/06 07:40:27;;;;;;;6.65;4.35;;;0.80;99.90;;;;;;5110471;28;20167;-76
2022/01/06 07:42:53;;;;;;;4.40;3.33;;;0.80;99.90;;;;;;5111909;28;20207;-76
2022/01/06 07:45:19;;;;;;;4.63;3.35;;;0.90;99.90;;;;;;5111794;28;20160;-76
2022/01/06 07:47:58;;;;;;;5.63;3.55;;;1.00;99.90;;;;;;5093531;28;20290;-76
2022/01/06 07:50:33;;;;;;;9.00;4.45;;;1.20;99.90;;;;;;5093510;28;20171;-78
2022/01/06 07:53:00;;;;;;;5.72;3.63;;;1.30;99.90;;;;;;5093369;28;20175;-78
2022/01/06 07:55:27;;;;;;;7.13;4.55;;;1.60;99.90;;;;;;5111528;28;20163;-79
2022/01/06 07:57:54;;;;;;;6.68;4.13;;;1.70;99.90;;;;;;5111352;28;20218;-78
2022/01/06 08:00:22;;;;;;;8.25;4.18;;;1.80;99.90;;;;;;5111556;28;20182;-76
2022/01/06 08:02:48;;;;;;;6.50;4.43;;;1.70;99.90;;;;;;5111515;28;20282;-78
2022/01/06 08:05:15;;;;;;;7.22;5.43;;;1.90;99.90;;;;;;5093261;28;20172;-77
2022/01/06 08:07:42;;;;;;;5.97;4.15;;;1.70;99.90;;;;;;5111435;28;20187;-76
2022/01/06 08:10:09;;;;;;;6.05;4.45;;;1.80;99.90;;;;;;5092968;28;20168;-76
2022/01/06 08:12:36;;;;;;;5.43;3.92;;;2.00;99.90;;;;;;5092989;28;20265;-78
2022/01/06 08:15:03;;;;;;;7.82;4.38;;;2.10;99.90;;;;;;5111274;28;20155;-76
2022/01/06 08:17:29;;;;;;;8.13;3.58;;;2.30;99.90;;;;;;5111122;28;20198;-76
2022/01/06 08:19:54;;;;;;;6.35;3.60;;;2.50;99.90;;;;;;5111183;28;20533;-78
2022/01/06 08:22:22;;;;;;;11.88;5.45;;;2.60;99.90;;;;;;5092824;28;20262;-77
2022/01/06 08:24:48;;;;;;;7.50;5.45;;;2.80;99.90;;;;;;5110999;28;20160;-76
2022/01/06 08:27:13;;;;;;;7.78;5.60;;;3.50;99.90;;;;;;5092799;28;20258;-77
2022/01/06 08:29:40;;;;;;;11.95;8.15;;;4.00;99.90;;;;;;5109550;28;20560;-78
2022/01/06 08:32:07;;;;;;;10.90;6.93;;;4.20;99.90;;;;;;5115798;27;20182;-76
2022/01/06 08:34:36;;;;;;;10.25;5.65;;;4.30;99.90;;;;;;5133354;27;20162;-76
2022/01/06 08:37:02;;;;;;;8.50;5.55;;;4.30;99.90;;;;;;5151611;27;20198;-76
2022/01/06 08:39:28;;;;;;;11.95;8.15;;;4.40;99.90;;;;;;5133187;27;20158;-75
2022/01/06 08:41:54;;;;;;;16.25;10.35;;;5.90;99.90;;;;;;5151632;27;20162;-75
2022/01/06 08:44:23;;;;;;;18.63;11.38;;;7.00;99.90;;;;;;5151440;27;20246;-75
2022/01/06 08:46:49;;;;;;;11.50;8.18;;;7.20;99.90;;;;;;5132978;27;20194;-76
2022/01/06 08:49:15;;;;;;;8.45;7.40;;;6.70;99.90;;;;;;5132817;27;20249;-76
2022/01/06 08:51:43;;;;;;;6.05;4.93;;;8.00;99.90;;;;;;5132873;27;20249;-76
2022/01/06 08:54:11;;;;;;;3.83;3.25;;;9.00;99.90;;;;;;5151327;27;20167;-76
2022/01/06 08:56:38;;;;;;;4.47;3.00;;;8.70;99.90;;;;;;5151338;27;20213;-75
2022/01/06 08:59:05;;;;;;;3.95;2.97;;;7.80;99.90;;;;;;5132634;27;20232;-76
2022/01/06 09:01:32;;;;;;;3.25;2.40;;;6.90;99.90;;;;;;5132741;27;20166;-76
2022/01/06 09:03:58;;;;;;;3.05;2.13;;;6.20;99.90;;;;;;5150973;27;20178;-76
2022/01/06 09:06:24;;;;;;;4.00;2.50;;;5.40;99.90;;;;;;5132459;27;20213;-75
2022/01/06 09:08:53;;;;;;;3.80;2.78;;;4.90;99.90;;;;;;5150982;27;20241;-75
2022/01/06 09:11:20;;;;;;;5.47;2.88;;;4.60;99.90;;;;;;5115531;27;20615;-76
2022/01/06 09:13:46;;;;;;;2.80;2.42;;;4.40;99.90;;;;;;5132587;27;20166;-75
2022/01/06 09:16:13;;;;;;;3.25;2.35;;;4.80;99.90;;;;;;5150416;27;20221;-75
2022/01/06 09:18:42;;;;;;;2.75;2.50;;;4.90;99.90;;;;;;5150893;27;20218;-76
2022/01/06 09:21:09;;;;;;;4.75;2.60;;;5.20;99.90;;;;;;5150893;27;20168;-75
2022/01/06 09:23:36;;;;;;;3.90;2.65;;;5.70;99.90;;;;;;5132154;27;20215;-76
2022/01/06 09:26:03;;;;;;;3.50;2.38;;;6.10;99.90;;;;;;5150175;27;20198;-76
2022/01/06 09:28:29;;;;;;;4.03;2.70;;;5.90;99.90;;;;;;5127961;27;20167;-76
2022/01/06 09:30:56;;;;;;;3.67;2.65;;;6.20;99.90;;;;;;5109684;28;20181;-76
2022/01/06 09:33:24;;;;;;;3.25;2.67;;;6.50;99.90;;;;;;5129719;28;20184;-76
2022/01/06 09:35:53;;;;;;;3.63;2.83;;;6.80;99.90;;;;;;5129427;28;20159;-76
2022/01/06 09:38:20;;;;;;;5.82;2.72;;;6.90;99.90;;;;;;5129705;28;20249;-76
2022/01/06 09:40:46;;;;;;;3.25;2.55;;;6.70;99.90;;;;;;5129017;28;20162;-75
2022/01/06 09:43:12;;;;;;;5.78;2.92;;;6.50;99.90;;;;;;5111047;28;20203;-76
2022/01/06 09:45:41;;;;;;;7.00;2.63;;;6.40;99.90;;;;;;5110983;28;20171;-76
2022/01/06 09:48:08;;;;;;;7.22;3.40;;;6.10;99.90;;;;;;5129213;28;20265;-76
2022/01/06 09:50:37;;;;;;;5.07;2.88;;;5.90;99.90;;;;;;5136177;27;20176;-76
2022/01/06 09:53:03;;;;;;;5.40;3.33;;;5.90;99.90;;;;;;5140386;27;20169;-77
2022/01/06 09:55:29;;;;;;;6.43;3.80;;;6.20;99.90;;;;;;5113537;28;20174;-75
2022/01/06 09:58:00;;;;;;;6.10;4.22;;;6.60;99.90;;;;;;5109183;28;20205;-76
2022/01/06 10:00:28;;;;;;;10.60;4.30;;;6.80;99.90;;;;;;5108409;28;20159;-76
2022/01/06 10:03:00;;;;;;;3.90;3.35;;;7.00;99.90;;;;;;5108430;28;20717;-76
2022/01/06 10:05:36;;;;;;;5.60;3.80;;;6.90;99.90;;;;;;5090209;28;20186;-76
2022/01/06 10:08:01;;;;;;;8.88;4.18;;;6.80;99.90;;;;;;5090458;28;20163;-75
2022/01/06 10:10:28;;;;;;;6.32;4.18;;;7.20;99.90;;;;;;5090419;28;20197;-76
2022/01/06 10:12:58;;;;;;;9.73;4.95;;;7.60;99.90;;;;;;5090576;28;20167;-76
2022/01/06 10:15:26;;;;;;;5.88;3.65;;;7.90;99.90;;;;;;5108528;28;20223;-75
2022/01/06 10:17:55;;;;;;;5.90;4.38;;;8.30;99.90;;;;;;5103271;28;20199;-76
2022/01/06 10:20:26;;;;;;;6.72;4.15;;;8.70;99.90;;;;;;5108968;28;20197;-76
2022/01/06 10:22:55;;;;;;;6.32;4.53;;;8.80;99.90;;;;;;5091131;28;20195;-76
2022/01/06 10:25:23;;;;;;;5.47;4.22;;;8.20;99.90;;;;;;5109065;28;20144;-76
2022/01/06 10:27:51;;;;;;;6.75;4.70;;;7.80;99.90;;;;;;5077863;28;20243;-76
2022/01/06 10:30:18;;;;;;;5.85;3.92;;;7.50;99.90;;;;;;5105731;28;20172;-75
2022/01/06 10:32:44;;;;;;;4.72;3.10;;;7.70;99.90;;;;;;5070808;28;20168;-76
2022/01/06 10:35:14;;;;;;;5.30;3.38;;;7.30;99.90;;;;;;5096749;28;20174;-75
2022/01/06 10:37:43;;;;;;;7.80;3.20;;;7.60;99.90;;;;;;5108956;28;20192;-76
2022/01/06 10:40:17;;;;;;;4.30;2.70;;;7.80;99.90;;;;;;5108898;28;20162;-75
2022/01/06 10:42:47;;;;;;;2.95;2.35;;;7.70;99.90;;;;;;5108685;28;20178;-75
2022/01/06 10:45:18;;;;;;;4.20;2.10;;;7.40;99.90;;;;;;5088538;28;20152;-76
2022/01/06 10:47:50;;;;;;;3.35;2.15;;;7.40;99.90;;;;;;5088587;28;20246;-75
2022/01/06 10:50:17;;;;;;;3.28;1.90;;;6.90;99.90;;;;;;5088552;28;20215;-76
2022/01/06 10:52:47;;;;;;;8.50;3.40;;;7.10;99.90;;;;;;5089138;28;20156;-75
2022/01/06 10:55:20;;;;;;;2.90;2.20;;;8.20;99.90;;;;;;5092128;28;20156;-75
2022/01/06 10:58:01;;;;;;;4.30;1.83;;;9.20;99.90;;;;;;5074060;28;20235;-75
2022/01/06 11:00:36;;;;;;;2.45;1.70;;;9.30;99.90;;;;;;5117924;28;20627;-75
2022/01/06 11:03:08;;;;;;;8.30;1.85;;;9.70;99.90;;;;;;5108112;28;20198;-76
2022/01/06 11:05:57;;;;;;;6.53;2.05;;;9.90;99.90;;;;;;5114412;28;20666;-75
2022/01/06 11:08:27;;;;;;;1.73;1.10;;;10.40;99.90;;;;;;5132848;28;20155;-75
2022/01/06 11:13:35;;;;;;;2.38;1.70;;;11.40;99.90;;;;;;5132906;28;20228;-73
2022/01/06 11:16:02;;;;;;;10.38;2.53;;;11.60;99.90;;;;;;5132549;28;20163;-73
2022/01/06 11:18:29;;;;;;;3.25;1.73;;;11.90;99.90;;;;;;5132513;28;20175;-75
2022/01/06 11:21:14;;;;;;;2.55;1.35;;;12.00;99.90;;;;;;5114128;28;20199;-76
2022/01/06 11:23:41;;;;;;;7.72;1.85;;;12.00;99.90;;;;;;5111211;28;20623;-76
2022/01/06 11:26:21;;;;;;;4.10;1.60;;;11.60;99.90;;;;;;5131480;28;20155;-75
2022/01/06 11:28:56;;;;;;;7.00;2.22;;;12.70;99.90;;;;;;5114141;28;20162;-75
2022/01/06 11:31:24;;;;;;;8.20;2.33;;;13.50;99.90;;;;;;5114263;28;20178;-75
2022/01/06 11:33:53;;;;;;;11.57;3.17;;;14.00;99.90;;;;;;5114030;28;20164;-76
2022/01/06 11:36:21;;;;;;;6.57;2.00;;;14.10;99.90;;;;;;5111848;28;20231;-76
2022/01/06 11:38:49;;;;;;;5.50;2.60;;;13.80;99.90;;;;;;5112039;28;20161;-75
2022/01/06 11:41:17;;;;;;;5.57;2.63;;;12.60;99.90;;;;;;5092069;28;20230;-75
2022/01/06 11:43:45;;;;;;;5.22;2.28;;;12.10;99.90;;;;;;5110301;28;20191;-76
2022/01/06 11:46:12;;;;;;;7.85;1.95;;;12.70;99.90;;;;;;5111374;28;20215;-76
2022/01/06 11:48:57;;;;;;;1.20;1.02;;;12.90;99.90;;;;;;5111617;28;20179;-75
2022/01/06 11:51:28;;;;;;;8.70;1.50;;;12.20;99.90;;;;;;5111679;28;20148;-76
2022/01/06 11:53:55;;;;;;;2.30;1.48;;;12.10;99.90;;;;;;5111673;28;20148;-76
2022/01/06 11:56:23;;;;;;;2.63;1.10;;;11.90;99.90;;;;;;5111295;28;20201;-76
2022/01/06 11:59:04;;;;;;;4.65;1.30;;;11.50;99.90;;;;;;5111203;28;20302;-76
2022/01/06 12:01:46;;;;;;;1.33;1.02;;;11.40;99.90;;;;;;5111606;28;20173;-75
2022/01/06 12:04:20;;;;;;;1.75;0.40;;;11.60;99.90;;;;;;5111060;28;20207;-76
2022/01/06 12:06:47;;;;;;;1.02;0.52;;;11.70;99.90;;;;;;5111367;28;20194;-76
2022/01/06 12:09:20;;;;;;;1.48;0.50;;;11.60;99.90;;;;;;5111564;28;20177;-75
2022/01/06 12:11:58;;;;;;;1.38;0.82;;;11.90;99.90;;;;;;5093086;28;20197;-75
2022/01/06 12:14:25;;;;;;;1.30;0.57;;;12.40;99.90;;;;;;5111332;28;20246;-76
2022/01/06 12:16:51;;;;;;;0.57;0.57;;;12.90;99.90;;;;;;5092957;28;20199;-76
2022/01/06 12:19:20;;;;;;;1.40;0.50;;;13.10;99.90;;;;;;5111237;28;20177;-75
2022/01/06 12:21:47;;;;;;;3.75;0.93;;;13.00;99.90;;;;;;5111107;28;20168;-75
2022/01/06 12:24:14;;;;;;;3.70;0.55;;;13.70;99.90;;;;;;5092718;28;20197;-75
2022/01/06 12:26:41;;;;;;;0.68;0.52;;;14.60;99.90;;;;;;5111063;28;20676;-75
2022/01/06 12:29:19;;;;;;;2.22;0.75;;;14.40;99.90;;;;;;5092793;28;20636;-76
2022/01/06 12:31:46;;;;;;;3.38;1.13;;;14.70;99.90;;;;;;5111012;28;20151;-76
2022/01/06 12:34:14;;;;;;;1.13;0.50;;;14.60;99.90;;;;;;5111016;28;20164;-75
2022/01/06 12:36:43;;;;;;;3.88;1.42;;;14.00;99.90;;;;;;5110647;28;20229;-76
2022/01/06 12:39:21;;;;;;;1.92;1.23;;;12.70;99.90;;;;;;5110827;28;20579;-75
2022/01/06 12:41:49;;;;;;;6.53;1.88;;;11.40;99.90;;;;;;5110752;28;20178;-75
2022/01/06 12:44:24;;;;;;;13.88;2.20;;;10.10;99.90;;;;;;5110679;28;20592;-75
2022/01/06 12:46:51;;;;;;;2.67;0.70;;;9.60;99.90;;;;;;5110696;28;20257;-76
2022/01/06 12:49:20;;;;;;;2.25;0.50;;;8.70;99.90;;;;;;5092451;28;20170;-73
2022/01/06 12:51:47;;;;;;;1.45;0.55;;;7.90;99.90;;;;;;5110465;28;20160;-74
2022/01/06 12:54:19;;;;;;;1.00;0.65;;;7.70;99.90;;;;;;5110551;28;20178;-74
2022/01/06 12:56:56;;;;;;;0.60;0.60;;;7.50;99.90;;;;;;5110512;28;20265;-74
2022/01/06 12:59:32;;;;;;;0.75;0.55;;;7.20;99.90;;;;;;5110258;28;20217;-74
2022/01/06 13:01:59;;;;;;;0.45;0.35;;;6.80;99.90;;;;;;5091791;28;20178;-74
2022/01/06 13:04:29;;;;;;;2.03;0.30;;;6.80;99.90;;;;;;5110248;28;20251;-74
2022/01/06 13:06:57;;;;;;;0.22;0.22;;;6.90;99.90;;;;;;5110180;28;20243;-74
2022/01/06 13:09:26;;;;;;;0.25;0.25;;;6.70;99.90;;;;;;5110214;28;20166;-74
2022/01/06 13:11:55;;;;;;;0.68;0.30;;;6.70;99.90;;;;;;5110151;28;20186;-74